createdAt,value
2022-10-17T00:00:11.462Z,12.4
2022-10-17T00:10:11.659Z,12.4
2022-10-17T00:20:12.395Z,12.4
2022-10-17T00:30:12.646Z,12.3
2022-10-17T00:40:13.519Z,12.2
2022-10-17T00:50:13.618Z,12.2
2022-10-17T01:00:14.436Z,12.1
2022-10-17T01:10:14.610Z,12.1
2022-10-17T01:20:15.013Z,12.2
2022-10-17T01:30:15.824Z,12.1
2022-10-17T01:40:16.937Z,12.1
2022-10-17T01:50:17.380Z,12.1
2022-10-17T02:00:17.727Z,12
2022-10-17T02:10:18.407Z,12
2022-10-17T02:20:19.098Z,12
2022-10-17T02:30:19.573Z,12
2022-10-17T02:50:21.039Z,11.7
2022-10-17T03:00:21.492Z,11.6
2022-10-17T03:10:22.371Z,11.5
2022-10-17T03:20:22.665Z,11.5
2022-10-17T03:30:23.543Z,11.4
2022-10-17T03:50:24.767Z,11.1
2022-10-17T04:00:25.354Z,11.2
2022-10-17T04:10:25.925Z,11.1
2022-10-17T04:20:26.206Z,11.2
2022-10-17T04:30:26.784Z,11.2
2022-10-17T04:50:27.070Z,11.2
2022-10-17T05:00:27.575Z,11.2
2022-10-17T05:10:27.982Z,11.2
2022-10-17T05:20:28.894Z,11.2
2022-10-17T05:30:30.651Z,11.2
2022-10-17T05:40:30.238Z,11.2
2022-10-17T06:00:31.948Z,11.2
2022-10-17T06:10:32.720Z,11.1
2022-10-17T06:20:33.691Z,11.2
2022-10-17T06:30:34.520Z,11.3
2022-10-17T06:50:35.217Z,11.9
2022-10-17T07:00:36.073Z,12.1
2022-10-17T07:10:36.362Z,12.4
2022-10-17T07:20:36.977Z,12.9
2022-10-17T07:30:37.192Z,13.3
2022-10-17T07:40:37.639Z,13.7
2022-10-17T07:50:37.808Z,14.2
2022-10-17T08:00:38.112Z,14.8
2022-10-17T08:10:38.493Z,15.5
2022-10-17T08:20:39.508Z,16
2022-10-17T08:30:40.216Z,16.8
2022-10-17T08:50:41.896Z,18.9
2022-10-17T09:00:42.864Z,19.3
2022-10-17T09:10:43.500Z,19.5
2022-10-17T09:20:43.658Z,19.6
2022-10-17T09:30:45.452Z,19.7
2022-10-17T09:40:44.472Z,19.8
2022-10-17T09:50:46.501Z,20
2022-10-17T10:00:46.070Z,20
2022-10-17T10:10:46.291Z,20.1
2022-10-17T10:20:46.644Z,20
2022-10-17T10:30:46.832Z,20
2022-10-17T10:50:48.254Z,19.8
2022-10-17T11:10:49.450Z,20
2022-10-17T11:20:49.805Z,20
2022-10-17T11:30:50.633Z,19.9
2022-10-17T11:40:51.675Z,19.5
2022-10-17T12:00:52.930Z,18.8
2022-10-17T12:10:53.797Z,18.8
2022-10-17T12:20:54.597Z,19
2022-10-17T12:30:54.720Z,18.9
2022-10-17T12:50:58.316Z,18.7
2022-10-17T13:01:19.335Z,18.7
2022-10-17T13:10:57.192Z,18.7
2022-10-17T13:20:57.665Z,18.8
2022-10-17T13:30:58.260Z,18.9
2022-10-17T13:41:06.021Z,18.9
2022-10-17T13:51:01.832Z,19
2022-10-17T14:00:59.374Z,19
2022-10-17T14:11:00.028Z,19.1
2022-10-17T14:41:23.501Z,19.1
2022-10-17T14:51:02.729Z,19.1
2022-10-17T15:11:03.979Z,19
2022-10-17T15:21:05.174Z,18.9
2022-10-17T15:31:04.723Z,18.9
2022-10-17T15:41:05.483Z,18.8
2022-10-17T15:51:05.716Z,18.7
2022-10-17T16:01:06.294Z,18.6
2022-10-17T16:11:06.621Z,18.4
2022-10-17T16:21:07.213Z,18.3
2022-10-17T16:31:07.665Z,18.1
2022-10-17T16:41:07.945Z,17.8
2022-10-17T16:51:08.280Z,17.6
2022-10-17T17:01:08.804Z,17.4
2022-10-17T17:11:09.573Z,17.2
2022-10-17T17:21:10.009Z,17.1
2022-10-17T17:31:11.056Z,17
2022-10-17T17:41:11.823Z,16.9
2022-10-17T17:51:12.479Z,16.8
2022-10-17T18:01:14.418Z,16.7
2022-10-17T18:11:15.934Z,16.7
2022-10-17T18:21:15.306Z,16.6
2022-10-17T18:31:15.998Z,16.6
2022-10-17T18:41:16.910Z,16.5
2022-10-17T18:51:17.679Z,16.4
2022-10-17T19:01:18.501Z,16.3
2022-10-17T19:11:18.943Z,16.2
2022-10-17T19:21:21.590Z,16.1
2022-10-17T19:31:24.073Z,16
2022-10-17T19:41:20.681Z,16
2022-10-17T19:51:21.338Z,16
2022-10-17T20:01:22.105Z,15.9
2022-10-17T20:21:22.779Z,15.7
2022-10-17T20:31:23.753Z,15.6
2022-10-17T20:41:23.932Z,15.7
2022-10-17T20:51:24.906Z,15.6
2022-10-17T21:01:25.116Z,15.7
2022-10-17T21:11:25.912Z,15.4
2022-10-17T21:21:26.373Z,15.3
2022-10-17T21:31:27.029Z,15.3
2022-10-17T21:41:27.262Z,15.2
2022-10-17T21:51:27.570Z,15.1
2022-10-17T22:01:28.426Z,15
2022-10-17T22:11:29.341Z,15
2022-10-17T22:21:29.606Z,15
2022-10-17T22:31:30.616Z,14.9
2022-10-17T22:41:31.686Z,14.9
2022-10-17T22:51:32.508Z,14.8
2022-10-17T23:01:32.866Z,14.8
2022-10-17T23:11:33.861Z,14.8
2022-10-17T23:21:34.640Z,14.6
2022-10-17T23:31:35.365Z,14.5
2022-10-17T23:41:36.433Z,14.5
2022-10-17T23:51:37.582Z,14.4
